createdAt,value
2022-10-24T00:00:08.281Z,2.22
2022-10-24T00:00:20.399Z,2.47
2022-10-24T00:00:33.016Z,2.80
2022-10-24T00:00:46.630Z,2.42
2022-10-24T00:00:59.791Z,2.45
2022-10-24T00:01:13.811Z,2.40
2022-10-24T00:01:25.817Z,2.30
2022-10-24T00:01:37.717Z,2.33
2022-10-24T00:01:49.700Z,2.33
2022-10-24T00:02:01.569Z,2.45
2022-10-24T00:02:13.458Z,2.50
2022-10-24T00:02:25.545Z,2.20
2022-10-24T00:02:37.568Z,2.00
2022-10-24T00:02:49.559Z,2.20
2022-10-24T00:03:01.777Z,2.17
2022-10-24T00:03:14.389Z,2.15
2022-10-24T00:03:26.342Z,2.20
2022-10-24T00:03:38.377Z,2.20
2022-10-24T00:03:50.671Z,2.15
2022-10-24T00:04:03.544Z,2.10
2022-10-24T00:04:15.427Z,2.10
2022-10-24T00:04:27.356Z,2.28
2022-10-24T00:04:40.764Z,2.50
2022-10-24T00:04:52.761Z,2.65
2022-10-24T00:05:05.071Z,2.50
2022-10-24T00:05:17.063Z,2.45
2022-10-24T00:05:28.971Z,2.25
2022-10-24T00:05:45.983Z,2.20
2022-10-24T00:05:57.875Z,2.10
2022-10-24T00:06:11.336Z,2.05
2022-10-24T00:06:23.523Z,2.00
2022-10-24T00:06:35.472Z,1.80
2022-10-24T00:06:47.427Z,1.83
2022-10-24T00:06:59.370Z,1.90
2022-10-24T00:07:11.372Z,1.95
2022-10-24T00:07:24.676Z,2.10
2022-10-24T00:07:36.553Z,2.25
2022-10-24T00:07:50.215Z,2.28
2022-10-24T00:08:02.569Z,2.22
2022-10-24T00:08:15.662Z,2.22
2022-10-24T00:08:27.540Z,2.15
2022-10-24T00:08:41.487Z,2.20
2022-10-24T00:08:53.403Z,2.30
2022-10-24T00:09:05.335Z,2.20
2022-10-24T00:09:17.216Z,2.10
2022-10-24T00:09:29.108Z,2.00
2022-10-24T00:09:41.070Z,1.90
2022-10-24T00:09:53.271Z,1.75
2022-10-24T00:10:05.703Z,1.90
2022-10-24T00:10:18.300Z,2.08
2022-10-24T00:10:30.241Z,2.25
2022-10-24T00:10:47.417Z,2.30
2022-10-24T00:10:59.336Z,2.20
2022-10-24T00:11:15.783Z,2.25
2022-10-24T00:11:28.266Z,2.03
2022-10-24T00:11:42.060Z,2.30
2022-10-24T00:11:53.989Z,2.70
2022-10-24T00:12:06.719Z,2.55
2022-10-24T00:12:20.017Z,2.40
2022-10-24T00:12:32.201Z,2.40
2022-10-24T00:12:44.708Z,2.25
2022-10-24T00:12:56.780Z,2.08
2022-10-24T00:13:08.695Z,2.15
2022-10-24T00:13:20.592Z,2.17
2022-10-24T00:13:33.512Z,2.22
2022-10-24T00:13:45.416Z,2.25
2022-10-24T00:13:57.886Z,2.03
2022-10-24T00:14:09.839Z,2.03
2022-10-24T00:14:21.752Z,2.25
2022-10-24T00:14:35.842Z,2.40
2022-10-24T00:14:47.822Z,2.30
2022-10-24T00:15:00.020Z,2.20
2022-10-24T00:15:12.359Z,2.38
2022-10-24T00:15:24.378Z,2.30
2022-10-24T00:15:36.368Z,2.25
2022-10-24T00:15:49.861Z,2.45
2022-10-24T00:16:01.758Z,2.40
2022-10-24T00:16:13.881Z,2.53
2022-10-24T00:16:27.498Z,2.33
2022-10-24T00:16:39.411Z,2.30
2022-10-24T00:16:51.372Z,2.58
2022-10-24T00:17:04.047Z,2.58
2022-10-24T00:17:15.964Z,2.30
2022-10-24T00:17:27.862Z,2.20
2022-10-24T00:17:39.792Z,2.42
2022-10-24T00:17:51.688Z,2.40
2022-10-24T00:18:04.236Z,2.40
2022-10-24T00:18:16.537Z,2.38
2022-10-24T00:18:28.416Z,2.40
2022-10-24T00:18:40.845Z,2.53
2022-10-24T00:18:53.351Z,2.45
2022-10-24T00:19:05.309Z,2.33
2022-10-24T00:19:17.392Z,2.28
2022-10-24T00:19:29.542Z,2.30
2022-10-24T00:19:41.480Z,2.08
2022-10-24T00:19:54.216Z,2.30
2022-10-24T00:20:07.443Z,2.30
2022-10-24T00:20:19.490Z,2.22
2022-10-24T00:20:31.787Z,2.10
2022-10-24T00:20:44.882Z,2.10
2022-10-24T00:20:56.891Z,2.13
2022-10-24T00:21:09.218Z,2.33
2022-10-24T00:21:21.332Z,2.50
2022-10-24T00:21:33.226Z,2.33
2022-10-24T00:21:45.396Z,2.28
2022-10-24T00:21:57.279Z,2.35
2022-10-24T00:22:09.158Z,2.22
2022-10-24T00:22:21.257Z,2.42
2022-10-24T00:22:33.258Z,2.50
2022-10-24T00:22:45.418Z,2.50
2022-10-24T00:22:57.591Z,2.30
2022-10-24T00:23:09.997Z,2.50
2022-10-24T00:23:21.895Z,2.83
2022-10-24T00:23:33.884Z,2.67
2022-10-24T00:23:46.619Z,2.58
2022-10-24T00:23:58.500Z,2.22
2022-10-24T00:24:10.687Z,2.20
2022-10-24T00:24:22.619Z,2.10
2022-10-24T00:24:34.607Z,2.08
2022-10-24T00:24:46.675Z,1.88
2022-10-24T00:24:58.659Z,2.05
2022-10-24T00:25:10.627Z,2.10
2022-10-24T00:25:22.541Z,2.20
2022-10-24T00:25:34.788Z,2.17
2022-10-24T00:25:46.690Z,2.17
2022-10-24T00:26:01.973Z,2.10
2022-10-24T00:26:15.714Z,1.90
2022-10-24T00:26:27.623Z,1.98
2022-10-24T00:26:39.812Z,2.22
2022-10-24T00:26:52.232Z,2.20
2022-10-24T00:27:04.513Z,2.15
2022-10-24T00:27:16.427Z,2.10
2022-10-24T00:27:28.370Z,2.13
2022-10-24T00:27:40.297Z,2.15
2022-10-24T00:27:52.307Z,2.20
2022-10-24T00:28:04.351Z,2.08
2022-10-24T00:28:16.232Z,2.10
2022-10-24T00:28:29.211Z,2.20
2022-10-24T00:28:41.661Z,2.15
2022-10-24T00:28:53.640Z,2.17
2022-10-24T00:29:06.000Z,2.10
2022-10-24T00:29:18.170Z,2.10
2022-10-24T00:29:30.205Z,2.20
2022-10-24T00:29:42.220Z,2.05
2022-10-24T00:29:54.092Z,2.20
2022-10-24T00:30:06.705Z,2.30
2022-10-24T00:30:18.666Z,2.38
2022-10-24T00:30:30.593Z,2.30
2022-10-24T00:30:42.480Z,2.20
2022-10-24T00:30:54.455Z,1.95
2022-10-24T00:31:07.972Z,2.03
2022-10-24T00:31:20.183Z,2.28
2022-10-24T00:31:32.234Z,2.80
2022-10-24T00:31:44.254Z,2.72
2022-10-24T00:31:56.152Z,2.30
2022-10-24T00:32:08.472Z,2.25
2022-10-24T00:32:20.460Z,2.33
2022-10-24T00:32:32.408Z,2.38
2022-10-24T00:32:44.520Z,2.50
2022-10-24T00:32:56.691Z,2.53
2022-10-24T00:33:08.587Z,2.13
2022-10-24T00:33:20.631Z,2.10
2022-10-24T00:33:32.629Z,1.98
2022-10-24T00:33:45.276Z,2.30
2022-10-24T00:33:59.700Z,2.30
2022-10-24T00:34:11.751Z,2.20
2022-10-24T00:34:23.697Z,2.30
2022-10-24T00:34:35.605Z,2.33
2022-10-24T00:34:47.534Z,2.17
2022-10-24T00:34:59.418Z,1.92
2022-10-24T00:35:11.309Z,1.98
2022-10-24T00:35:23.396Z,2.00
2022-10-24T00:35:35.268Z,2.08
2022-10-24T00:35:47.212Z,2.10
2022-10-24T00:35:59.442Z,2.13
2022-10-24T00:36:16.849Z,2.10
2022-10-24T00:36:29.000Z,2.10
2022-10-24T00:36:41.004Z,2.10
2022-10-24T00:36:52.908Z,2.20
2022-10-24T00:37:05.197Z,2.15
2022-10-24T00:37:17.146Z,2.20
2022-10-24T00:37:29.122Z,2.33
2022-10-24T00:37:41.208Z,2.30
2022-10-24T00:37:53.231Z,2.38
2022-10-24T00:38:05.114Z,2.42
2022-10-24T00:38:17.029Z,2.38
2022-10-24T00:38:28.993Z,2.05
2022-10-24T00:38:41.182Z,2.15
2022-10-24T00:38:53.343Z,2.40
2022-10-24T00:39:05.398Z,2.40
2022-10-24T00:39:17.306Z,2.20
2022-10-24T00:39:29.240Z,2.10
2022-10-24T00:39:41.131Z,2.10
2022-10-24T00:39:53.031Z,2.30
2022-10-24T00:40:06.320Z,2.50
2022-10-24T00:40:19.907Z,2.88
2022-10-24T00:40:31.807Z,2.72
2022-10-24T00:40:43.867Z,2.80
2022-10-24T00:40:55.778Z,2.30
2022-10-24T00:41:07.831Z,2.20
2022-10-24T00:41:29.474Z,2.40
2022-10-24T00:41:42.862Z,2.50
2022-10-24T00:41:58.741Z,2.42
2022-10-24T00:42:11.871Z,2.50
2022-10-24T00:42:23.804Z,2.60
2022-10-24T00:42:36.188Z,2.72
2022-10-24T00:42:48.691Z,2.72
2022-10-24T00:43:00.591Z,2.42
2022-10-24T00:43:22.745Z,2.30
2022-10-24T00:43:34.626Z,2.47
2022-10-24T00:43:46.661Z,2.63
2022-10-24T00:44:23.196Z,2.90
2022-10-24T00:44:39.176Z,2.60
2022-10-24T00:44:53.248Z,2.70
2022-10-24T00:46:02.433Z,2.40
2022-10-24T00:46:16.601Z,2.05
2022-10-24T00:46:28.504Z,2.20
2022-10-24T00:47:26.706Z,2.28
2022-10-24T00:47:38.796Z,2.17
2022-10-24T00:47:51.146Z,1.95
2022-10-24T00:48:10.273Z,2.40
2022-10-24T00:48:33.590Z,2.78
2022-10-24T00:48:48.293Z,2.10
2022-10-24T00:49:00.595Z,2.33
2022-10-24T00:49:15.981Z,2.40
2022-10-24T00:49:39.941Z,2.50
2022-10-24T00:50:00.757Z,2.42
2022-10-24T00:50:14.891Z,2.40
2022-10-24T00:50:26.841Z,2.65
2022-10-24T00:50:38.739Z,3.00
2022-10-24T00:50:55.508Z,2.90
2022-10-24T00:51:25.934Z,2.50
2022-10-24T00:51:38.231Z,2.22
2022-10-24T00:51:56.607Z,2.10
2022-10-24T00:52:09.935Z,1.98
2022-10-24T00:52:26.117Z,2.20
2022-10-24T00:52:42.814Z,2.13
2022-10-24T00:52:55.325Z,2.00
2022-10-24T00:53:07.366Z,2.33
2022-10-24T00:53:21.091Z,2.38
2022-10-24T00:53:38.002Z,2.15
2022-10-24T00:53:52.991Z,2.28
2022-10-24T00:54:08.487Z,2.33
2022-10-24T00:54:21.251Z,2.30
2022-10-24T00:54:34.026Z,2.38
2022-10-24T00:54:46.879Z,2.20
2022-10-24T00:55:00.983Z,2.10
2022-10-24T00:55:14.377Z,2.20
2022-10-24T00:55:26.259Z,2.40
2022-10-24T00:55:38.319Z,2.42
2022-10-24T00:55:54.031Z,2.65
2022-10-24T00:56:07.664Z,2.67
2022-10-24T00:56:22.902Z,2.40
2022-10-24T00:56:39.506Z,2.22
2022-10-24T00:57:00.020Z,2.40
2022-10-24T00:57:21.194Z,2.42
2022-10-24T00:57:44.277Z,2.22
2022-10-24T00:58:01.533Z,2.22
2022-10-24T00:58:15.098Z,2.35
2022-10-24T00:58:30.731Z,2.22
2022-10-24T00:58:44.649Z,2.28
2022-10-24T00:58:58.006Z,2.30
2022-10-24T00:59:12.557Z,2.50
2022-10-24T00:59:25.865Z,2.50
2022-10-24T00:59:41.462Z,2.33
2022-10-24T00:59:58.029Z,2.20
2022-10-24T01:00:14.820Z,2.30
2022-10-24T01:00:32.572Z,2.67
2022-10-24T01:00:45.077Z,2.65
2022-10-24T01:00:57.461Z,2.47
2022-10-24T01:01:09.557Z,2.42
2022-10-24T01:01:21.579Z,2.50
2022-10-24T01:01:34.702Z,2.58
2022-10-24T01:01:47.554Z,2.42
2022-10-24T01:01:59.501Z,2.40
2022-10-24T01:02:11.941Z,2.30
2022-10-24T01:02:24.169Z,2.17
2022-10-24T01:02:36.848Z,2.13
2022-10-24T01:02:49.576Z,2.25
2022-10-24T01:03:02.395Z,2.30
2022-10-24T01:03:14.534Z,2.40
2022-10-24T01:03:26.871Z,2.50
2022-10-24T01:03:38.929Z,2.40
2022-10-24T01:03:50.775Z,2.35
2022-10-24T01:04:02.955Z,2.50
2022-10-24T01:04:15.249Z,2.60
2022-10-24T01:04:27.312Z,2.53
2022-10-24T01:04:39.681Z,2.38
2022-10-24T01:04:54.067Z,2.35
2022-10-24T01:05:07.003Z,2.67
2022-10-24T01:05:21.554Z,2.70
2022-10-24T01:05:46.312Z,2.50
2022-10-24T01:06:22.376Z,2.22
2022-10-24T01:06:55.583Z,2.35
2022-10-24T01:07:13.881Z,2.20
2022-10-24T01:07:49.317Z,2.30
2022-10-24T01:08:19.251Z,2.30
2022-10-24T01:08:40.310Z,2.70
2022-10-24T01:09:16.983Z,2.40
2022-10-24T01:09:35.196Z,2.47
2022-10-24T01:10:00.098Z,2.80
2022-10-24T01:10:44.170Z,2.45
2022-10-24T01:11:07.885Z,2.25
2022-10-24T01:11:25.699Z,2.80
2022-10-24T01:12:16.343Z,2.70
2022-10-24T01:12:46.764Z,2.20
2022-10-24T01:13:20.135Z,2.22
2022-10-24T01:13:34.647Z,2.08
2022-10-24T01:13:58.356Z,2.55
2022-10-24T01:14:35.980Z,2.10
2022-10-24T01:15:10.160Z,2.17
2022-10-24T01:15:52.071Z,2.00
2022-10-24T01:16:23.669Z,2.33
2022-10-24T01:16:41.691Z,2.25
2022-10-24T01:17:09.432Z,2.00
2022-10-24T01:17:42.500Z,2.10
2022-10-24T01:18:07.186Z,2.15
2022-10-24T01:18:30.617Z,2.53
2022-10-24T01:19:03.170Z,2.42
2022-10-24T01:19:20.668Z,1.98
2022-10-24T01:20:13.986Z,1.90
2022-10-24T01:20:53.369Z,2.00
2022-10-24T01:21:24.917Z,2.20
2022-10-24T01:21:59.055Z,2.13
2022-10-24T01:22:21.717Z,2.20
2022-10-24T01:22:40.938Z,2.08
2022-10-24T01:23:17.298Z,2.13
2022-10-24T01:24:03.471Z,2.28
2022-10-24T01:24:38.385Z,2.03
2022-10-24T01:24:53.211Z,2.13
2022-10-24T01:25:15.162Z,2.30
2022-10-24T01:25:35.925Z,2.42
2022-10-24T01:26:06.163Z,2.13
2022-10-24T01:26:39.765Z,2.08
2022-10-24T01:27:02.239Z,2.00
2022-10-24T01:27:35.650Z,1.85
2022-10-24T01:28:04.724Z,2.13
2022-10-24T01:28:27.265Z,2.28
2022-10-24T01:29:23.088Z,2.45
2022-10-24T01:29:40.778Z,2.30
2022-10-24T01:30:00.947Z,2.40
2022-10-24T01:30:14.654Z,2.70
2022-10-24T01:30:29.182Z,2.63
2022-10-24T01:30:49.234Z,2.15
2022-10-24T01:31:11.228Z,2.13
2022-10-24T01:31:32.120Z,2.10
2022-10-24T01:32:04.148Z,2.38
2022-10-24T01:32:18.817Z,2.10
2022-10-24T01:32:43.028Z,2.20
2022-10-24T01:33:05.579Z,2.58
2022-10-24T01:33:37.340Z,2.67
2022-10-24T01:33:54.419Z,2.25
2022-10-24T01:34:23.839Z,2.53
2022-10-24T01:34:46.762Z,2.08
2022-10-24T01:35:08.536Z,2.20
2022-10-24T01:35:26.271Z,2.20
2022-10-24T01:35:50.702Z,2.47
2022-10-24T01:36:14.903Z,2.35
2022-10-24T01:36:45.078Z,2.30
2022-10-24T01:37:04.027Z,2.20
2022-10-24T01:37:19.920Z,2.00
2022-10-24T01:37:53.318Z,2.00
2022-10-24T01:38:32.117Z,2.10
2022-10-24T01:38:50.484Z,1.92
2022-10-24T01:39:06.608Z,1.83
2022-10-24T01:39:21.945Z,2.17
2022-10-24T01:39:43.881Z,2.25
2022-10-24T01:40:02.729Z,2.10
2022-10-24T01:40:29.270Z,2.10
2022-10-24T01:40:50.753Z,2.30
2022-10-24T01:41:13.465Z,2.17
2022-10-24T01:41:29.178Z,2.22
2022-10-24T01:41:43.333Z,1.88
2022-10-24T01:41:58.009Z,1.83
2022-10-24T01:42:14.329Z,2.20
2022-10-24T01:42:29.836Z,2.20
2022-10-24T01:42:43.789Z,2.05
2022-10-24T01:43:07.995Z,2.00
2022-10-24T01:43:27.952Z,2.10
2022-10-24T01:43:44.995Z,2.00
2022-10-24T01:44:35.926Z,1.88
2022-10-24T01:44:51.680Z,2.03
2022-10-24T01:45:06.076Z,2.00
2022-10-24T01:45:30.085Z,2.17
2022-10-24T01:45:45.934Z,2.38
2022-10-24T01:46:04.188Z,2.28
2022-10-24T01:46:22.632Z,2.10
2022-10-24T01:46:40.524Z,2.20
2022-10-24T01:46:59.154Z,2.33
2022-10-24T01:47:22.604Z,2.00
2022-10-24T01:47:40.203Z,2.00
2022-10-24T01:47:56.348Z,2.20
2022-10-24T01:48:14.448Z,2.20
2022-10-24T01:48:29.560Z,2.10
2022-10-24T01:48:46.616Z,2.00
2022-10-24T01:49:02.821Z,2.13
2022-10-24T01:49:17.872Z,2.20
2022-10-24T01:49:34.429Z,2.20
2022-10-24T01:49:53.519Z,2.15
2022-10-24T01:50:09.973Z,2.08
2022-10-24T01:50:26.026Z,2.40
2022-10-24T01:50:39.034Z,2.23
2022-10-24T01:50:54.186Z,2.13
2022-10-24T01:51:08.075Z,2.05
2022-10-24T01:51:24.212Z,1.90
2022-10-24T01:51:36.990Z,2.22
2022-10-24T01:51:52.271Z,2.20
2022-10-24T01:52:08.669Z,2.03
2022-10-24T01:52:23.533Z,2.00
2022-10-24T01:52:39.209Z,2.00
2022-10-24T01:52:52.897Z,2.95
2022-10-24T01:53:07.360Z,3.10
2022-10-24T01:53:24.621Z,2.10
2022-10-24T01:53:38.193Z,1.95
2022-10-24T01:53:51.250Z,2.20
2022-10-24T01:54:04.219Z,2.30
2022-10-24T01:54:16.962Z,2.22
2022-10-24T01:54:31.617Z,2.38
2022-10-24T01:54:45.943Z,2.38
2022-10-24T01:54:57.875Z,2.20
2022-10-24T01:55:10.910Z,2.10
2022-10-24T01:55:23.706Z,2.30
2022-10-24T01:55:37.049Z,2.10
2022-10-24T01:55:49.859Z,2.08
2022-10-24T01:56:02.143Z,2.30
2022-10-24T01:56:14.153Z,2.13
2022-10-24T01:56:26.666Z,2.13
2022-10-24T01:56:38.682Z,2.20
2022-10-24T01:56:51.938Z,2.40
2022-10-24T01:57:05.416Z,2.45
2022-10-24T01:57:17.447Z,2.10
2022-10-24T01:57:31.088Z,1.95
2022-10-24T01:57:43.015Z,2.15
2022-10-24T01:57:54.881Z,2.33
2022-10-24T01:58:08.378Z,2.30
2022-10-24T01:58:20.978Z,2.33
2022-10-24T01:58:32.857Z,2.20
2022-10-24T01:58:45.654Z,2.20
2022-10-24T01:59:25.723Z,2.30
2022-10-24T01:59:44.680Z,2.22
2022-10-24T01:59:56.637Z,2.38
2022-10-24T02:00:15.425Z,2.38
2022-10-24T02:00:27.439Z,2.25
2022-10-24T02:00:40.004Z,2.30
2022-10-24T02:00:58.830Z,2.20
2022-10-24T02:01:16.061Z,2.00
2022-10-24T02:01:28.496Z,1.80
2022-10-24T02:01:40.681Z,1.90
2022-10-24T02:01:55.189Z,2.38
2022-10-24T02:02:21.729Z,2.35
2022-10-24T02:02:45.837Z,1.95
2022-10-24T02:03:08.905Z,2.47
2022-10-24T02:03:23.677Z,2.13
2022-10-24T02:03:48.152Z,2.15
2022-10-24T02:04:05.783Z,2.47
2022-10-24T02:04:18.103Z,2.60
2022-10-24T02:04:32.974Z,2.00
2022-10-24T02:04:58.102Z,1.88
2022-10-24T02:05:19.028Z,2.15
2022-10-24T02:05:33.869Z,2.33
2022-10-24T02:05:51.440Z,2.20
2022-10-24T02:06:13.215Z,2.15
2022-10-24T02:06:37.094Z,2.22
2022-10-24T02:06:49.509Z,2.33
2022-10-24T02:07:07.211Z,2.47
2022-10-24T02:07:21.550Z,3.58
2022-10-24T02:07:35.558Z,3.60
2022-10-24T02:07:53.431Z,3.20
2022-10-24T02:08:10.355Z,2.95
2022-10-24T02:08:30.172Z,2.55
2022-10-24T02:08:46.618Z,3.00
2022-10-24T02:09:24.437Z,5.15
2022-10-24T02:09:39.614Z,5.00
2022-10-24T02:09:57.800Z,5.65
2022-10-24T02:10:19.319Z,6.70
2022-10-24T02:10:35.886Z,7.07
2022-10-24T02:10:58.548Z,7.32
2022-10-24T02:11:10.869Z,7.70
2022-10-24T02:11:22.972Z,6.93
2022-10-24T02:11:35.864Z,5.95
2022-10-24T02:11:49.643Z,5.55
2022-10-24T02:12:01.851Z,5.18
2022-10-24T02:12:16.482Z,5.38
2022-10-24T02:12:30.018Z,5.38
2022-10-24T02:12:47.539Z,4.82
2022-10-24T02:13:08.325Z,4.82
2022-10-24T02:13:32.449Z,4.50
2022-10-24T02:13:58.125Z,4.18
2022-10-24T02:14:15.487Z,4.05
2022-10-24T02:14:33.872Z,4.10
2022-10-24T02:14:50.205Z,4.60
2022-10-24T02:15:07.675Z,4.97
2022-10-24T02:15:29.350Z,4.90
2022-10-24T02:15:47.520Z,4.80
2022-10-24T02:16:01.234Z,4.47
2022-10-24T02:16:17.306Z,4.38
2022-10-24T02:16:29.852Z,4.28
2022-10-24T02:16:43.917Z,4.00
2022-10-24T02:16:56.177Z,4.03
2022-10-24T02:17:08.452Z,4.35
2022-10-24T02:17:20.652Z,4.30
2022-10-24T02:17:32.843Z,3.95
2022-10-24T02:17:45.141Z,4.15
2022-10-24T02:17:57.969Z,4.40
2022-10-24T02:18:11.099Z,4.40
2022-10-24T02:18:23.238Z,3.95
2022-10-24T02:18:35.247Z,3.50
2022-10-24T02:18:50.858Z,3.25
2022-10-24T02:19:02.849Z,3.30
2022-10-24T02:19:15.579Z,3.20
2022-10-24T02:19:28.446Z,3.10
2022-10-24T02:19:40.759Z,3.10
2022-10-24T02:19:53.492Z,3.30
2022-10-24T02:20:06.636Z,3.28
2022-10-24T02:20:25.112Z,3.10
2022-10-24T02:20:44.707Z,3.00
2022-10-24T02:21:18.117Z,2.67
2022-10-24T02:21:55.345Z,2.42
2022-10-24T02:22:51.245Z,2.15
2022-10-24T02:23:05.961Z,3.30
2022-10-24T02:23:55.916Z,3.60
2022-10-24T02:24:31.607Z,2.20
2022-10-24T02:24:53.680Z,2.28
2022-10-24T02:25:16.956Z,2.00
2022-10-24T02:25:34.972Z,2.30
2022-10-24T02:25:51.141Z,2.13
2022-10-24T02:26:09.399Z,2.22
2022-10-24T02:26:29.704Z,2.30
2022-10-24T02:26:53.908Z,2.05
2022-10-24T02:27:17.510Z,1.90
2022-10-24T02:27:35.222Z,1.80
2022-10-24T02:27:49.778Z,1.83
2022-10-24T02:28:10.085Z,1.90
2022-10-24T02:28:26.125Z,2.20
2022-10-24T02:28:43.038Z,1.98
2022-10-24T02:28:58.820Z,2.00
2022-10-24T02:29:19.956Z,2.08
2022-10-24T02:29:54.003Z,2.35
2022-10-24T02:30:18.999Z,2.30
2022-10-24T02:30:35.333Z,1.80
2022-10-24T02:30:56.287Z,1.90
2022-10-24T02:31:16.018Z,2.03
2022-10-24T02:31:33.778Z,2.03
2022-10-24T02:31:54.449Z,1.98
2022-10-24T02:32:09.795Z,2.00
2022-10-24T02:32:27.766Z,2.17
2022-10-24T02:32:46.877Z,2.15
2022-10-24T02:33:01.227Z,2.08
2022-10-24T02:33:15.663Z,2.20
2022-10-24T02:33:30.018Z,2.60
2022-10-24T02:33:44.802Z,2.60
2022-10-24T02:33:58.040Z,2.13
2022-10-24T02:34:34.366Z,2.60
2022-10-24T02:34:47.720Z,2.38
2022-10-24T02:35:02.551Z,1.90
2022-10-24T02:35:17.989Z,1.77
2022-10-24T02:35:32.649Z,1.90
2022-10-24T02:35:48.053Z,2.10
2022-10-24T02:36:01.237Z,1.98
2022-10-24T02:36:17.234Z,1.88
2022-10-24T02:36:32.436Z,1.92
2022-10-24T02:36:46.569Z,1.88
2022-10-24T02:36:59.838Z,2.08
2022-10-24T02:37:14.038Z,2.20
2022-10-24T02:37:28.780Z,2.13
2022-10-24T02:37:47.457Z,1.95
2022-10-24T02:38:20.152Z,1.75
2022-10-24T02:38:37.596Z,2.25
2022-10-24T02:38:52.153Z,2.30
2022-10-24T02:39:07.257Z,1.80
2022-10-24T02:39:20.080Z,1.70
2022-10-24T02:39:33.969Z,1.88
2022-10-24T02:39:48.548Z,2.20
2022-10-24T02:40:03.305Z,2.20
2022-10-24T02:40:18.198Z,1.92
2022-10-24T02:40:30.903Z,1.98
2022-10-24T02:40:44.664Z,2.00
2022-10-24T02:40:58.699Z,2.00
2022-10-24T02:41:15.292Z,1.90
2022-10-24T02:41:31.824Z,2.00
2022-10-24T02:41:45.175Z,2.15
2022-10-24T02:41:58.715Z,2.22
2022-10-24T02:42:12.084Z,2.50
2022-10-24T02:42:47.711Z,1.90
2022-10-24T02:43:01.959Z,2.20
2022-10-24T02:43:14.227Z,2.33
2022-10-24T02:43:28.040Z,1.98
2022-10-24T02:43:42.569Z,1.75
2022-10-24T02:43:55.885Z,1.90
2022-10-24T02:44:09.703Z,1.90
2022-10-24T02:44:23.678Z,1.88
2022-10-24T02:44:36.408Z,2.15
2022-10-24T02:44:49.110Z,2.40
2022-10-24T02:45:02.245Z,2.28
2022-10-24T02:45:15.579Z,2.30
2022-10-24T02:45:29.447Z,2.15
2022-10-24T02:45:41.493Z,2.10
2022-10-24T02:45:56.159Z,2.03
2022-10-24T02:46:09.774Z,2.13
2022-10-24T02:46:23.520Z,2.00
2022-10-24T02:46:35.798Z,2.10
2022-10-24T02:46:50.492Z,2.60
2022-10-24T02:47:05.711Z,2.70
2022-10-24T02:47:21.093Z,2.20
2022-10-24T02:47:33.864Z,2.13
2022-10-24T02:47:47.617Z,2.20
2022-10-24T02:48:04.335Z,2.17
2022-10-24T02:48:21.074Z,2.00
2022-10-24T02:48:36.888Z,1.90
2022-10-24T02:48:57.372Z,2.08
2022-10-24T02:49:09.397Z,2.28
2022-10-24T02:49:21.450Z,2.15
2022-10-24T02:49:33.400Z,2.25
2022-10-24T02:49:45.603Z,2.20
2022-10-24T02:49:57.480Z,1.90
2022-10-24T02:50:10.067Z,1.70
2022-10-24T02:50:22.535Z,1.80
2022-10-24T02:50:36.019Z,1.90
2022-10-24T02:50:48.887Z,1.80
2022-10-24T02:51:02.064Z,1.80
2022-10-24T02:51:16.819Z,1.90
2022-10-24T02:51:36.488Z,1.70
2022-10-24T02:51:49.912Z,1.80
2022-10-24T02:52:02.330Z,1.80
2022-10-24T02:52:14.592Z,1.60
2022-10-24T02:52:27.020Z,1.73
2022-10-24T02:52:40.856Z,1.85
2022-10-24T02:52:52.735Z,1.95
2022-10-24T02:53:04.931Z,1.77
2022-10-24T02:53:20.755Z,1.77
2022-10-24T02:53:36.312Z,1.80
2022-10-24T02:53:50.256Z,1.65
2022-10-24T02:54:02.758Z,1.77
2022-10-24T02:54:14.692Z,1.70
2022-10-24T02:54:26.585Z,1.60
2022-10-24T02:54:38.490Z,1.42
2022-10-24T02:54:51.051Z,1.60
2022-10-24T02:55:03.171Z,1.55
2022-10-24T02:55:15.142Z,1.40
2022-10-24T02:55:27.032Z,1.42
2022-10-24T02:55:39.026Z,1.55
2022-10-24T02:55:51.010Z,1.70
2022-10-24T02:56:03.488Z,1.50
2022-10-24T02:56:15.444Z,1.42
2022-10-24T02:56:28.284Z,1.45
2022-10-24T02:56:45.999Z,1.33
2022-10-24T02:57:02.645Z,1.60
2022-10-24T02:57:15.127Z,1.75
2022-10-24T02:57:27.358Z,1.50
2022-10-24T02:57:39.328Z,1.40
2022-10-24T02:57:51.228Z,1.65
2022-10-24T02:58:03.169Z,1.90
2022-10-24T02:58:15.056Z,1.70
2022-10-24T02:58:26.924Z,1.58
2022-10-24T02:58:39.353Z,1.30
2022-10-24T02:58:51.241Z,1.30
2022-10-24T02:59:03.217Z,1.40
2022-10-24T02:59:15.193Z,1.52
2022-10-24T02:59:27.134Z,1.50
2022-10-24T02:59:39.140Z,1.60
2022-10-24T02:59:51.030Z,1.63
2022-10-24T03:00:04.554Z,1.63
2022-10-24T03:00:18.566Z,1.80
2022-10-24T03:00:30.725Z,2.10
2022-10-24T03:00:42.995Z,2.10
2022-10-24T03:00:54.920Z,1.70
2022-10-24T03:01:06.954Z,1.60
2022-10-24T03:01:19.077Z,1.70
2022-10-24T03:01:31.090Z,1.52
2022-10-24T03:01:43.175Z,1.65
2022-10-24T03:01:55.231Z,1.83
2022-10-24T03:02:08.194Z,1.70
2022-10-24T03:02:20.662Z,1.55
2022-10-24T03:02:33.192Z,1.50
2022-10-24T03:02:45.378Z,1.50
2022-10-24T03:02:57.781Z,1.50
2022-10-24T03:03:09.738Z,1.65
2022-10-24T03:03:22.341Z,1.70
2022-10-24T03:03:34.296Z,1.60
2022-10-24T03:03:46.734Z,1.42
2022-10-24T03:03:58.697Z,1.40
2022-10-24T03:04:10.621Z,1.30
2022-10-24T03:04:22.525Z,1.50
2022-10-24T03:04:34.429Z,1.60
2022-10-24T03:04:46.396Z,1.60
2022-10-24T03:04:58.362Z,1.60
2022-10-24T03:05:10.420Z,1.60
2022-10-24T03:05:22.473Z,1.60
2022-10-24T03:05:34.493Z,1.63
2022-10-24T03:05:46.406Z,1.67
2022-10-24T03:05:58.303Z,1.75
2022-10-24T03:06:10.414Z,1.85
2022-10-24T03:06:22.299Z,2.10
2022-10-24T03:06:34.201Z,1.80
2022-10-24T03:06:46.228Z,1.65
2022-10-24T03:06:58.244Z,1.40
2022-10-24T03:07:10.163Z,1.20
2022-10-24T03:07:22.166Z,1.10
2022-10-24T03:07:34.049Z,1.15
2022-10-24T03:07:45.967Z,1.25
2022-10-24T03:07:57.849Z,1.23
2022-10-24T03:08:09.759Z,1.35
2022-10-24T03:08:21.650Z,1.40
2022-10-24T03:08:33.561Z,1.42
2022-10-24T03:08:45.447Z,1.40
2022-10-24T03:08:57.306Z,1.48
2022-10-24T03:09:09.302Z,1.48
2022-10-24T03:09:21.182Z,1.40
2022-10-24T03:09:34.361Z,1.50
2022-10-24T03:09:46.255Z,1.73
2022-10-24T03:09:58.145Z,1.67
2022-10-24T03:10:10.303Z,1.52
2022-10-24T03:10:22.521Z,1.42
2022-10-24T03:10:34.453Z,1.67
2022-10-24T03:10:46.565Z,1.83
2022-10-24T03:10:58.682Z,1.90
2022-10-24T03:11:10.883Z,1.83
2022-10-24T03:11:22.908Z,1.77
2022-10-24T03:11:35.024Z,1.77
2022-10-24T03:11:47.275Z,1.55
2022-10-24T03:11:59.251Z,1.77
2022-10-24T03:12:16.216Z,1.95
2022-10-24T03:12:28.371Z,1.80
2022-10-24T03:12:40.320Z,1.63
2022-10-24T03:12:52.304Z,1.40
2022-10-24T03:13:04.608Z,1.83
2022-10-24T03:13:16.542Z,1.92
2022-10-24T03:13:28.488Z,1.73
2022-10-24T03:13:40.365Z,1.50
2022-10-24T03:13:52.699Z,1.48
2022-10-24T03:14:04.607Z,1.50
2022-10-24T03:14:16.785Z,1.40
2022-10-24T03:14:28.699Z,1.40
2022-10-24T03:14:40.570Z,1.38
2022-10-24T03:14:52.527Z,1.50
2022-10-24T03:15:05.565Z,1.65
2022-10-24T03:15:17.873Z,1.60
2022-10-24T03:15:30.025Z,1.70
2022-10-24T03:15:41.942Z,1.65
2022-10-24T03:15:53.852Z,1.75
2022-10-24T03:16:07.816Z,1.80
2022-10-24T03:16:22.209Z,1.58
2022-10-24T03:16:34.076Z,1.38
2022-10-24T03:16:45.950Z,1.38
2022-10-24T03:16:57.848Z,1.40
2022-10-24T03:17:09.782Z,1.30
2022-10-24T03:17:21.909Z,1.50
2022-10-24T03:17:33.858Z,1.65
2022-10-24T03:17:49.024Z,1.63
2022-10-24T03:18:00.971Z,1.55
2022-10-24T03:18:12.870Z,1.60
2022-10-24T03:18:24.830Z,1.48
2022-10-24T03:18:36.712Z,1.38
2022-10-24T03:18:48.655Z,1.30
2022-10-24T03:19:00.624Z,1.40
2022-10-24T03:19:12.521Z,1.40
2022-10-24T03:19:24.429Z,1.40
2022-10-24T03:19:36.464Z,1.50
2022-10-24T03:19:48.371Z,1.50
2022-10-24T03:20:00.247Z,1.42
2022-10-24T03:20:12.146Z,1.35
2022-10-24T03:20:24.615Z,1.50
2022-10-24T03:20:36.614Z,1.60
2022-10-24T03:20:48.497Z,1.45
2022-10-24T03:21:00.406Z,1.23
2022-10-24T03:21:12.322Z,1.23
2022-10-24T03:21:24.464Z,1.40
2022-10-24T03:21:36.739Z,1.40
2022-10-24T03:21:49.656Z,1.52
2022-10-24T03:22:01.533Z,1.58
2022-10-24T03:22:13.487Z,1.27
2022-10-24T03:22:29.833Z,1.33
2022-10-24T03:22:42.964Z,1.48
2022-10-24T03:22:54.863Z,1.40
2022-10-24T03:23:07.189Z,1.40
2022-10-24T03:23:19.317Z,1.52
2022-10-24T03:23:31.200Z,1.52
2022-10-24T03:23:43.076Z,1.42
2022-10-24T03:23:55.024Z,1.30
2022-10-24T03:24:27.020Z,1.60
2022-10-24T03:24:56.010Z,2.00
2022-10-24T03:25:08.409Z,2.20
2022-10-24T03:25:20.432Z,1.63
2022-10-24T03:25:32.324Z,1.55
2022-10-24T03:25:44.218Z,1.60
2022-10-24T03:25:57.243Z,1.60
2022-10-24T03:26:09.223Z,1.77
2022-10-24T03:26:21.102Z,1.52
2022-10-24T03:26:33.054Z,1.25
2022-10-24T03:26:45.024Z,1.40
2022-10-24T03:26:56.907Z,1.40
2022-10-24T03:27:08.844Z,1.45
2022-10-24T03:27:20.746Z,1.30
2022-10-24T03:27:33.968Z,1.27
2022-10-24T03:27:46.411Z,1.38
2022-10-24T03:27:58.594Z,1.33
2022-10-24T03:28:10.500Z,1.77
2022-10-24T03:28:22.661Z,1.80
2022-10-24T03:28:34.859Z,1.70